sensor_id;sensor_type;location;lat;lon;timestamp;temperature;humidity
76172;DHT22;64929;51.178;4.138;2024-02-04T00:01:19;11.70;99.90
76172;DHT22;64929;51.178;4.138;2024-02-04T00:03:44;11.70;99.90
76172;DHT22;64929;51.178;4.138;2024-02-04T00:06:10;11.80;99.90
76172;DHT22;64929;51.178;4.138;2024-02-04T00:08:36;11.80;99.90
76172;DHT22;64929;51.178;4.138;2024-02-04T00:11:02;11.80;99.90
76172;DHT22;64929;51.178;4.138;2024-02-04T00:13:30;11.90;99.90
76172;DHT22;64929;51.178;4.138;2024-02-04T00:15:56;11.80;99.90
76172;DHT22;64929;51.178;4.138;2024-02-04T00:18:24;11.70;99.90
76172;DHT22;64929;51.178;4.138;2024-02-04T00:20:50;11.80;99.90
76172;DHT22;64929;51.178;4.138;2024-02-04T00:23:15;11.70;99.90
76172;DHT22;64929;51.178;4.138;2024-02-04T00:25:41;11.90;99.90
76172;DHT22;64929;51.178;4.138;2024-02-04T00:28:07;11.80;99.90
76172;DHT22;64929;51.178;4.138;2024-02-04T00:30:39;11.80;99.90
76172;DHT22;64929;51.178;4.138;2024-02-04T00:33:05;11.80;99.90
76172;DHT22;64929;51.178;4.138;2024-02-04T00:35:31;11.90;99.90
76172;DHT22;64929;51.178;4.138;2024-02-04T00:37:58;11.80;99.90
76172;DHT22;64929;51.178;4.138;2024-02-04T00:40:24;11.80;99.90
76172;DHT22;64929;51.178;4.138;2024-02-04T00:42:51;11.80;99.90
76172;DHT22;64929;51.178;4.138;2024-02-04T00:45:17;11.90;99.90
76172;DHT22;64929;51.178;4.138;2024-02-04T00:47:43;11.80;99.90
76172;DHT22;64929;51.178;4.138;2024-02-04T00:50:09;11.90;99.90
76172;DHT22;64929;51.178;4.138;2024-02-04T00:52:35;11.90;99.90
76172;DHT22;64929;51.178;4.138;2024-02-04T00:55:00;11.80;99.90
76172;DHT22;64929;51.178;4.138;2024-02-04T00:57:26;11.80;99.90
76172;DHT22;64929;51.178;4.138;2024-02-04T00:59:52;11.90;99.90
76172;DHT22;64929;51.178;4.138;2024-02-04T01:02:18;11.80;99.90
76172;DHT22;64929;51.178;4.138;2024-02-04T01:04:44;11.80;99.90
76172;DHT22;64929;51.178;4.138;2024-02-04T01:07:10;11.90;99.90
76172;DHT22;64929;51.178;4.138;2024-02-04T01:09:35;11.90;99.90
76172;DHT22;64929;51.178;4.138;2024-02-04T01:12:01;12.00;99.90
76172;DHT22;64929;51.178;4.138;2024-02-04T01:14:27;11.90;99.90
76172;DHT22;64929;51.178;4.138;2024-02-04T01:16:52;11.80;99.90
76172;DHT22;64929;51.178;4.138;2024-02-04T01:19:18;11.80;99.90
76172;DHT22;64929;51.178;4.138;2024-02-04T01:21:44;12.00;99.90
76172;DHT22;64929;51.178;4.138;2024-02-04T01:24:10;11.90;99.90
76172;DHT22;64929;51.178;4.138;2024-02-04T01:26:35;11.90;99.90
76172;DHT22;64929;51.178;4.138;2024-02-04T01:29:01;12.00;99.90
76172;DHT22;64929;51.178;4.138;2024-02-04T01:31:27;12.10;99.90
76172;DHT22;64929;51.178;4.138;2024-02-04T01:33:53;12.00;99.90
76172;DHT22;64929;51.178;4.138;2024-02-04T01:36:18;12.00;99.90
76172;DHT22;64929;51.178;4.138;2024-02-04T01:38:44;12.00;99.90
76172;DHT22;64929;51.178;4.138;2024-02-04T01:41:10;12.00;99.90
76172;DHT22;64929;51.178;4.138;2024-02-04T01:43:35;11.80;99.90
76172;DHT22;64929;51.178;4.138;2024-02-04T01:46:01;11.70;99.90
76172;DHT22;64929;51.178;4.138;2024-02-04T01:48:27;11.70;99.90
76172;DHT22;64929;51.178;4.138;2024-02-04T01:50:54;12.00;99.90
76172;DHT22;64929;51.178;4.138;2024-02-04T01:53:22;12.00;99.90
76172;DHT22;64929;51.178;4.138;2024-02-04T01:55:49;12.00;99.90
76172;DHT22;64929;51.178;4.138;2024-02-04T01:58:15;12.10;99.90
76172;DHT22;64929;51.178;4.138;2024-02-04T02:00:41;12.20;99.90
76172;DHT22;64929;51.178;4.138;2024-02-04T02:03:11;12.20;99.90
76172;DHT22;64929;51.178;4.138;2024-02-04T02:05:37;12.00;99.90
76172;DHT22;64929;51.178;4.138;2024-02-04T02:08:03;12.10;99.90
76172;DHT22;64929;51.178;4.138;2024-02-04T02:10:29;12.10;99.90
76172;DHT22;64929;51.178;4.138;2024-02-04T02:13:22;12.10;99.90
76172;DHT22;64929;51.178;4.138;2024-02-04T02:15:52;12.10;99.90
76172;DHT22;64929;51.178;4.138;2024-02-04T02:18:37;12.20;99.90
76172;DHT22;64929;51.178;4.138;2024-02-04T02:26:33;12.10;99.90
76172;DHT22;64929;51.178;4.138;2024-02-04T02:29:03;12.10;99.90
76172;DHT22;64929;51.178;4.138;2024-02-04T02:31:29;12.10;99.90
76172;DHT22;64929;51.178;4.138;2024-02-04T02:33:55;12.20;99.90
76172;DHT22;64929;51.178;4.138;2024-02-04T02:36:21;12.30;99.90
76172;DHT22;64929;51.178;4.138;2024-02-04T02:39:09;12.30;99.90
76172;DHT22;64929;51.178;4.138;2024-02-04T02:41:42;12.20;99.90
76172;DHT22;64929;51.178;4.138;2024-02-04T02:44:08;12.10;99.90
76172;DHT22;64929;51.178;4.138;2024-02-04T02:46:36;12.30;99.90
76172;DHT22;64929;51.178;4.138;2024-02-04T02:49:02;12.20;99.90
76172;DHT22;64929;51.178;4.138;2024-02-04T02:51:28;12.30;99.90
76172;DHT22;64929;51.178;4.138;2024-02-04T02:53:53;12.20;99.90
76172;DHT22;64929;51.178;4.138;2024-02-04T02:56:19;12.00;99.90
76172;DHT22;64929;51.178;4.138;2024-02-04T02:58:45;12.00;99.90
76172;DHT22;64929;51.178;4.138;2024-02-04T03:01:10;12.10;99.90
76172;DHT22;64929;51.178;4.138;2024-02-04T03:03:36;12.10;99.90
76172;DHT22;64929;51.178;4.138;2024-02-04T03:06:02;12.20;99.90
76172;DHT22;64929;51.178;4.138;2024-02-04T03:08:27;12.20;99.90
76172;DHT22;64929;51.178;4.138;2024-02-04T03:10:53;12.20;99.90
76172;DHT22;64929;51.178;4.138;2024-02-04T03:13:19;12.20;99.90
76172;DHT22;64929;51.178;4.138;2024-02-04T03:15:44;12.30;99.90
76172;DHT22;64929;51.178;4.138;2024-02-04T03:18:11;12.20;99.90
76172;DHT22;64929;51.178;4.138;2024-02-04T03:20:36;12.00;99.90
76172;DHT22;64929;51.178;4.138;2024-02-04T03:23:02;12.00;99.90
76172;DHT22;64929;51.178;4.138;2024-02-04T03:25:28;12.10;99.90
76172;DHT22;64929;51.178;4.138;2024-02-04T03:27:54;12.10;99.90
76172;DHT22;64929;51.178;4.138;2024-02-04T03:30:20;12.00;99.90
76172;DHT22;64929;51.178;4.138;2024-02-04T03:32:46;11.80;99.90
76172;DHT22;64929;51.178;4.138;2024-02-04T03:35:12;11.80;99.90
76172;DHT22;64929;51.178;4.138;2024-02-04T03:37:38;12.00;99.90
76172;DHT22;64929;51.178;4.138;2024-02-04T03:40:03;12.10;99.90
76172;DHT22;64929;51.178;4.138;2024-02-04T03:42:29;12.20;99.90
76172;DHT22;64929;51.178;4.138;2024-02-04T03:44:56;12.10;99.90
76172;DHT22;64929;51.178;4.138;2024-02-04T03:47:21;12.00;99.90
76172;DHT22;64929;51.178;4.138;2024-02-04T03:49:47;12.10;99.90
76172;DHT22;64929;51.178;4.138;2024-02-04T03:52:13;12.00;99.90
76172;DHT22;64929;51.178;4.138;2024-02-04T03:54:38;12.10;99.90
76172;DHT22;64929;51.178;4.138;2024-02-04T03:57:04;12.10;99.90
76172;DHT22;64929;51.178;4.138;2024-02-04T03:59:30;11.90;99.90
76172;DHT22;64929;51.178;4.138;2024-02-04T04:01:55;11.80;99.90
76172;DHT22;64929;51.178;4.138;2024-02-04T04:04:23;11.90;99.90
76172;DHT22;64929;51.178;4.138;2024-02-04T04:06:49;11.90;99.90
76172;DHT22;64929;51.178;4.138;2024-02-04T04:09:14;12.00;99.90
76172;DHT22;64929;51.178;4.138;2024-02-04T04:11:40;12.00;99.90
76172;DHT22;64929;51.178;4.138;2024-02-04T04:14:06;12.00;99.90
76172;DHT22;64929;51.178;4.138;2024-02-04T04:16:31;12.00;99.90
76172;DHT22;64929;51.178;4.138;2024-02-04T04:18:57;12.00;99.90
76172;DHT22;64929;51.178;4.138;2024-02-04T04:21:25;11.80;99.90
76172;DHT22;64929;51.178;4.138;2024-02-04T04:23:51;11.70;99.90
76172;DHT22;64929;51.178;4.138;2024-02-04T04:26:17;11.60;99.90
76172;DHT22;64929;51.178;4.138;2024-02-04T04:28:43;11.80;99.90
76172;DHT22;64929;51.178;4.138;2024-02-04T04:31:08;11.80;99.90
76172;DHT22;64929;51.178;4.138;2024-02-04T04:33:36;11.60;99.90
76172;DHT22;64929;51.178;4.138;2024-02-04T04:36:01;11.70;99.90
76172;DHT22;64929;51.178;4.138;2024-02-04T04:38:27;11.60;99.90
76172;DHT22;64929;51.178;4.138;2024-02-04T04:40:53;11.70;99.90
76172;DHT22;64929;51.178;4.138;2024-02-04T04:43:19;11.70;99.90
76172;DHT22;64929;51.178;4.138;2024-02-04T04:45:45;11.80;99.90
76172;DHT22;64929;51.178;4.138;2024-02-04T04:48:10;11.70;99.90
76172;DHT22;64929;51.178;4.138;2024-02-04T04:50:36;11.70;99.90
76172;DHT22;64929;51.178;4.138;2024-02-04T04:53:02;11.60;99.90
76172;DHT22;64929;51.178;4.138;2024-02-04T04:55:28;11.50;99.90
76172;DHT22;64929;51.178;4.138;2024-02-04T04:57:53;11.60;99.90
76172;DHT22;64929;51.178;4.138;2024-02-04T05:00:19;11.50;99.90
76172;DHT22;64929;51.178;4.138;2024-02-04T05:02:45;11.60;99.90
76172;DHT22;64929;51.178;4.138;2024-02-04T05:05:14;11.70;99.90
76172;DHT22;64929;51.178;4.138;2024-02-04T05:07:40;11.70;99.90
76172;DHT22;64929;51.178;4.138;2024-02-04T05:10:07;11.60;99.90
76172;DHT22;64929;51.178;4.138;2024-02-04T05:12:33;11.80;99.90
76172;DHT22;64929;51.178;4.138;2024-02-04T05:14:59;11.80;99.90
76172;DHT22;64929;51.178;4.138;2024-02-04T05:17:26;11.70;99.90
76172;DHT22;64929;51.178;4.138;2024-02-04T05:19:51;11.70;99.90
76172;DHT22;64929;51.178;4.138;2024-02-04T05:22:17;11.70;99.90
76172;DHT22;64929;51.178;4.138;2024-02-04T05:24:43;11.80;99.90
76172;DHT22;64929;51.178;4.138;2024-02-04T05:27:08;11.90;99.90
76172;DHT22;64929;51.178;4.138;2024-02-04T05:29:34;11.90;99.90
76172;DHT22;64929;51.178;4.138;2024-02-04T05:32:00;11.90;99.90
76172;DHT22;64929;51.178;4.138;2024-02-04T05:34:25;11.90;99.90
76172;DHT22;64929;51.178;4.138;2024-02-04T05:36:51;11.80;99.90
76172;DHT22;64929;51.178;4.138;2024-02-04T05:39:17;11.70;99.90
76172;DHT22;64929;51.178;4.138;2024-02-04T05:41:43;11.60;99.90
76172;DHT22;64929;51.178;4.138;2024-02-04T05:44:09;11.70;99.90
76172;DHT22;64929;51.178;4.138;2024-02-04T05:46:35;11.60;99.90
76172;DHT22;64929;51.178;4.138;2024-02-04T05:49:01;11.60;99.90
76172;DHT22;64929;51.178;4.138;2024-02-04T05:51:27;11.60;99.90
76172;DHT22;64929;51.178;4.138;2024-02-04T05:53:53;11.80;99.90
76172;DHT22;64929;51.178;4.138;2024-02-04T05:56:19;11.70;99.90
76172;DHT22;64929;51.178;4.138;2024-02-04T05:58:46;11.70;99.90
76172;DHT22;64929;51.178;4.138;2024-02-04T06:01:12;11.90;99.90
76172;DHT22;64929;51.178;4.138;2024-02-04T06:03:37;11.70;99.90
76172;DHT22;64929;51.178;4.138;2024-02-04T06:06:03;11.80;99.90
76172;DHT22;64929;51.178;4.138;2024-02-04T06:08:29;11.70;99.90
76172;DHT22;64929;51.178;4.138;2024-02-04T06:10:55;11.60;99.90
76172;DHT22;64929;51.178;4.138;2024-02-04T06:13:21;11.70;99.90
76172;DHT22;64929;51.178;4.138;2024-02-04T06:15:46;11.70;99.90
76172;DHT22;64929;51.178;4.138;2024-02-04T06:18:12;11.70;99.90
76172;DHT22;64929;51.178;4.138;2024-02-04T06:20:38;11.80;99.90
76172;DHT22;64929;51.178;4.138;2024-02-04T06:23:03;11.70;99.90
76172;DHT22;64929;51.178;4.138;2024-02-04T06:25:29;11.70;99.90
76172;DHT22;64929;51.178;4.138;2024-02-04T06:27:55;11.70;99.90
76172;DHT22;64929;51.178;4.138;2024-02-04T06:30:20;11.80;99.90
76172;DHT22;64929;51.178;4.138;2024-02-04T06:32:48;11.70;99.90
76172;DHT22;64929;51.178;4.138;2024-02-04T06:35:15;11.70;99.90
76172;DHT22;64929;51.178;4.138;2024-02-04T06:37:41;11.60;99.90
76172;DHT22;64929;51.178;4.138;2024-02-04T06:40:09;11.70;99.90
76172;DHT22;64929;51.178;4.138;2024-02-04T06:42:35;11.80;99.90
76172;DHT22;64929;51.178;4.138;2024-02-04T06:45:01;11.60;99.90
76172;DHT22;64929;51.178;4.138;2024-02-04T06:47:26;11.50;99.90
76172;DHT22;64929;51.178;4.138;2024-02-04T06:49:52;11.40;99.90
76172;DHT22;64929;51.178;4.138;2024-02-04T06:52:18;11.40;99.90
76172;DHT22;64929;51.178;4.138;2024-02-04T06:54:44;11.30;99.90
76172;DHT22;64929;51.178;4.138;2024-02-04T06:57:09;11.40;99.90
76172;DHT22;64929;51.178;4.138;2024-02-04T06:59:35;11.40;99.90
76172;DHT22;64929;51.178;4.138;2024-02-04T07:02:01;11.40;99.90
76172;DHT22;64929;51.178;4.138;2024-02-04T07:04:27;11.50;99.90
76172;DHT22;64929;51.178;4.138;2024-02-04T07:06:52;11.60;99.90
76172;DHT22;64929;51.178;4.138;2024-02-04T07:09:18;11.50;99.90
76172;DHT22;64929;51.178;4.138;2024-02-04T07:11:44;11.60;99.90
76172;DHT22;64929;51.178;4.138;2024-02-04T07:14:10;11.60;99.90
76172;DHT22;64929;51.178;4.138;2024-02-04T07:16:35;11.60;99.90
76172;DHT22;64929;51.178;4.138;2024-02-04T07:19:01;11.50;99.90
76172;DHT22;64929;51.178;4.138;2024-02-04T07:21:28;11.60;99.90
76172;DHT22;64929;51.178;4.138;2024-02-04T07:23:53;11.50;99.90
76172;DHT22;64929;51.178;4.138;2024-02-04T07:26:19;11.60;99.90
76172;DHT22;64929;51.178;4.138;2024-02-04T07:28:45;11.80;99.90
76172;DHT22;64929;51.178;4.138;2024-02-04T07:31:11;11.70;99.90
76172;DHT22;64929;51.178;4.138;2024-02-04T07:33:36;11.60;99.90
76172;DHT22;64929;51.178;4.138;2024-02-04T07:36:02;11.60;99.90
76172;DHT22;64929;51.178;4.138;2024-02-04T07:38:28;11.80;99.90
76172;DHT22;64929;51.178;4.138;2024-02-04T07:40:54;11.70;99.90
76172;DHT22;64929;51.178;4.138;2024-02-04T07:43:21;11.80;99.90
76172;DHT22;64929;51.178;4.138;2024-02-04T07:45:47;11.80;99.90
76172;DHT22;64929;51.178;4.138;2024-02-04T07:48:13;11.70;99.90
76172;DHT22;64929;51.178;4.138;2024-02-04T07:50:39;11.80;99.90
76172;DHT22;64929;51.178;4.138;2024-02-04T07:53:05;11.90;99.90
76172;DHT22;64929;51.178;4.138;2024-02-04T07:55:30;11.90;99.90
76172;DHT22;64929;51.178;4.138;2024-02-04T07:57:56;12.00;99.90
76172;DHT22;64929;51.178;4.138;2024-02-04T08:00:22;12.00;99.90
76172;DHT22;64929;51.178;4.138;2024-02-04T08:02:47;11.90;99.90
76172;DHT22;64929;51.178;4.138;2024-02-04T08:05:13;12.00;99.90
76172;DHT22;64929;51.178;4.138;2024-02-04T08:07:39;11.90;99.90
76172;DHT22;64929;51.178;4.138;2024-02-04T08:10:06;11.90;99.90
76172;DHT22;64929;51.178;4.138;2024-02-04T08:12:32;12.00;99.90
76172;DHT22;64929;51.178;4.138;2024-02-04T08:14:58;11.90;99.90
76172;DHT22;64929;51.178;4.138;2024-02-04T08:17:24;11.90;99.90
76172;DHT22;64929;51.178;4.138;2024-02-04T08:19:50;11.80;99.90
76172;DHT22;64929;51.178;4.138;2024-02-04T08:22:16;11.80;99.90
76172;DHT22;64929;51.178;4.138;2024-02-04T08:24:43;11.80;99.90
76172;DHT22;64929;51.178;4.138;2024-02-04T08:27:09;11.90;99.90
76172;DHT22;64929;51.178;4.138;2024-02-04T08:29:34;11.90;99.90
76172;DHT22;64929;51.178;4.138;2024-02-04T08:32:00;12.00;99.90
76172;DHT22;64929;51.178;4.138;2024-02-04T08:34:26;12.10;99.90
76172;DHT22;64929;51.178;4.138;2024-02-04T08:36:52;12.10;99.90
76172;DHT22;64929;51.178;4.138;2024-02-04T08:39:18;12.10;99.90
76172;DHT22;64929;51.178;4.138;2024-02-04T08:41:44;12.10;99.90
76172;DHT22;64929;51.178;4.138;2024-02-04T08:44:09;12.20;99.90
76172;DHT22;64929;51.178;4.138;2024-02-04T08:46:35;12.00;99.90
76172;DHT22;64929;51.178;4.138;2024-02-04T08:49:01;12.10;99.90
76172;DHT22;64929;51.178;4.138;2024-02-04T08:51:26;12.20;99.90
76172;DHT22;64929;51.178;4.138;2024-02-04T08:53:52;12.30;99.90
76172;DHT22;64929;51.178;4.138;2024-02-04T08:56:18;12.20;99.90
76172;DHT22;64929;51.178;4.138;2024-02-04T08:58:45;12.00;99.90
76172;DHT22;64929;51.178;4.138;2024-02-04T09:01:11;12.00;99.90
76172;DHT22;64929;51.178;4.138;2024-02-04T09:03:36;12.20;99.90
76172;DHT22;64929;51.178;4.138;2024-02-04T09:06:03;12.20;99.90
76172;DHT22;64929;51.178;4.138;2024-02-04T09:08:28;12.20;99.90
76172;DHT22;64929;51.178;4.138;2024-02-04T09:10:54;12.10;99.90
76172;DHT22;64929;51.178;4.138;2024-02-04T09:13:20;12.20;99.90
76172;DHT22;64929;51.178;4.138;2024-02-04T09:15:46;12.30;99.90
76172;DHT22;64929;51.178;4.138;2024-02-04T09:18:12;12.30;99.90
76172;DHT22;64929;51.178;4.138;2024-02-04T09:20:37;12.10;99.90
76172;DHT22;64929;51.178;4.138;2024-02-04T09:23:03;12.10;99.90
76172;DHT22;64929;51.178;4.138;2024-02-04T09:25:30;12.20;99.90
76172;DHT22;64929;51.178;4.138;2024-02-04T09:27:56;12.20;99.90
76172;DHT22;64929;51.178;4.138;2024-02-04T09:30:21;12.20;99.90
76172;DHT22;64929;51.178;4.138;2024-02-04T09:32:47;12.20;99.90
76172;DHT22;64929;51.178;4.138;2024-02-04T09:35:13;12.20;99.90
76172;DHT22;64929;51.178;4.138;2024-02-04T09:37:39;12.20;99.90
76172;DHT22;64929;51.178;4.138;2024-02-04T09:40:05;12.20;99.90
76172;DHT22;64929;51.178;4.138;2024-02-04T09:42:30;12.40;99.90
76172;DHT22;64929;51.178;4.138;2024-02-04T09:44:57;12.30;99.90
76172;DHT22;64929;51.178;4.138;2024-02-04T09:47:23;12.20;99.90
76172;DHT22;64929;51.178;4.138;2024-02-04T09:49:49;12.10;99.90
76172;DHT22;64929;51.178;4.138;2024-02-04T09:52:18;12.10;99.90
76172;DHT22;64929;51.178;4.138;2024-02-04T09:54:49;12.20;99.90
76172;DHT22;64929;51.178;4.138;2024-02-04T09:57:16;12.40;99.90
76172;DHT22;64929;51.178;4.138;2024-02-04T09:59:44;12.40;99.90
76172;DHT22;64929;51.178;4.138;2024-02-04T10:02:10;12.50;99.90
76172;DHT22;64929;51.178;4.138;2024-02-04T10:04:36;12.60;99.90
76172;DHT22;64929;51.178;4.138;2024-02-04T10:07:02;12.70;99.90
76172;DHT22;64929;51.178;4.138;2024-02-04T10:09:28;12.90;99.90
76172;DHT22;64929;51.178;4.138;2024-02-04T10:11:55;13.00;99.90
76172;DHT22;64929;51.178;4.138;2024-02-04T10:14:21;12.90;99.90
76172;DHT22;64929;51.178;4.138;2024-02-04T10:16:47;13.00;99.90
76172;DHT22;64929;51.178;4.138;2024-02-04T10:19:12;12.90;99.90
76172;DHT22;64929;51.178;4.138;2024-02-04T10:21:38;12.90;99.90
76172;DHT22;64929;51.178;4.138;2024-02-04T10:24:06;12.80;99.90
76172;DHT22;64929;51.178;4.138;2024-02-04T10:26:32;12.80;99.90
76172;DHT22;64929;51.178;4.138;2024-02-04T10:29:00;13.10;99.90
76172;DHT22;64929;51.178;4.138;2024-02-04T10:31:27;13.10;99.90
76172;DHT22;64929;51.178;4.138;2024-02-04T10:33:53;13.20;99.90
76172;DHT22;64929;51.178;4.138;2024-02-04T10:36:20;13.20;99.90
76172;DHT22;64929;51.178;4.138;2024-02-04T10:38:46;13.10;99.90
76172;DHT22;64929;51.178;4.138;2024-02-04T10:41:15;13.20;99.90
76172;DHT22;64929;51.178;4.138;2024-02-04T10:43:43;13.20;99.90
76172;DHT22;64929;51.178;4.138;2024-02-04T10:46:09;13.20;99.90
76172;DHT22;64929;51.178;4.138;2024-02-04T10:48:37;13.20;99.90
76172;DHT22;64929;51.178;4.138;2024-02-04T10:51:15;13.20;99.90
76172;DHT22;64929;51.178;4.138;2024-02-04T10:53:42;13.20;99.90
76172;DHT22;64929;51.178;4.138;2024-02-04T10:56:18;13.20;99.90
76172;DHT22;64929;51.178;4.138;2024-02-04T10:58:46;13.20;99.90
76172;DHT22;64929;51.178;4.138;2024-02-04T11:01:13;13.20;99.90
76172;DHT22;64929;51.178;4.138;2024-02-04T11:03:40;13.30;99.90
76172;DHT22;64929;51.178;4.138;2024-02-04T11:06:08;13.40;99.90
76172;DHT22;64929;51.178;4.138;2024-02-04T11:08:35;13.50;99.90
76172;DHT22;64929;51.178;4.138;2024-02-04T11:11:01;13.50;99.90
76172;DHT22;64929;51.178;4.138;2024-02-04T11:13:28;13.60;99.90
76172;DHT22;64929;51.178;4.138;2024-02-04T11:15:57;13.70;99.90
76172;DHT22;64929;51.178;4.138;2024-02-04T11:21:08;13.80;99.90
76172;DHT22;64929;51.178;4.138;2024-02-04T11:26:34;13.80;99.90
76172;DHT22;64929;51.178;4.138;2024-02-04T11:29:00;13.80;99.90
76172;DHT22;64929;51.178;4.138;2024-02-04T11:31:28;13.70;99.90
76172;DHT22;64929;51.178;4.138;2024-02-04T11:33:56;13.70;99.90
76172;DHT22;64929;51.178;4.138;2024-02-04T11:36:25;13.60;99.90
76172;DHT22;64929;51.178;4.138;2024-02-04T11:38:51;13.30;99.90
76172;DHT22;64929;51.178;4.138;2024-02-04T11:41:25;13.30;99.90
76172;DHT22;64929;51.178;4.138;2024-02-04T11:43:56;13.40;99.90
76172;DHT22;64929;51.178;4.138;2024-02-04T11:46:22;13.60;99.90
76172;DHT22;64929;51.178;4.138;2024-02-04T11:48:54;13.60;99.90
76172;DHT22;64929;51.178;4.138;2024-02-04T11:51:24;13.50;99.90
76172;DHT22;64929;51.178;4.138;2024-02-04T11:53:51;13.60;99.90
76172;DHT22;64929;51.178;4.138;2024-02-04T11:56:19;13.40;99.90
76172;DHT22;64929;51.178;4.138;2024-02-04T11:58:46;13.30;99.90
76172;DHT22;64929;51.178;4.138;2024-02-04T12:01:12;13.40;99.90
76172;DHT22;64929;51.178;4.138;2024-02-04T12:03:38;13.50;99.90
76172;DHT22;64929;51.178;4.138;2024-02-04T12:06:04;13.50;99.90
76172;DHT22;64929;51.178;4.138;2024-02-04T12:08:32;13.60;99.90
76172;DHT22;64929;51.178;4.138;2024-02-04T12:11:00;13.50;99.90
76172;DHT22;64929;51.178;4.138;2024-02-04T12:13:28;13.50;99.90
76172;DHT22;64929;51.178;4.138;2024-02-04T12:15:53;13.60;99.90
76172;DHT22;64929;51.178;4.138;2024-02-04T12:18:19;13.50;99.90
76172;DHT22;64929;51.178;4.138;2024-02-04T12:20:47;13.50;99.90
76172;DHT22;64929;51.178;4.138;2024-02-04T12:23:16;13.50;99.90
76172;DHT22;64929;51.178;4.138;2024-02-04T12:25:42;13.40;99.90
76172;DHT22;64929;51.178;4.138;2024-02-04T12:28:08;13.40;99.90
76172;DHT22;64929;51.178;4.138;2024-02-04T12:30:34;13.40;99.90
76172;DHT22;64929;51.178;4.138;2024-02-04T12:33:01;13.50;99.90
76172;DHT22;64929;51.178;4.138;2024-02-04T12:35:28;13.60;99.90
76172;DHT22;64929;51.178;4.138;2024-02-04T12:37:55;13.60;99.90
76172;DHT22;64929;51.178;4.138;2024-02-04T12:40:25;13.60;99.90
76172;DHT22;64929;51.178;4.138;2024-02-04T12:42:57;13.70;99.90
76172;DHT22;64929;51.178;4.138;2024-02-04T12:45:24;13.70;99.90
76172;DHT22;64929;51.178;4.138;2024-02-04T12:47:53;13.60;99.90
76172;DHT22;64929;51.178;4.138;2024-02-04T12:50:20;13.60;99.90
76172;DHT22;64929;51.178;4.138;2024-02-04T12:52:47;13.40;99.90
76172;DHT22;64929;51.178;4.138;2024-02-04T12:55:22;13.50;99.90
76172;DHT22;64929;51.178;4.138;2024-02-04T12:57:48;13.40;99.90
76172;DHT22;64929;51.178;4.138;2024-02-04T13:00:17;13.40;99.90
76172;DHT22;64929;51.178;4.138;2024-02-04T13:02:43;13.30;99.90
76172;DHT22;64929;51.178;4.138;2024-02-04T13:05:09;13.30;99.90
76172;DHT22;64929;51.178;4.138;2024-02-04T13:07:36;13.40;99.90
76172;DHT22;64929;51.178;4.138;2024-02-04T13:10:02;13.50;99.90
76172;DHT22;64929;51.178;4.138;2024-02-04T13:12:28;13.40;99.90
76172;DHT22;64929;51.178;4.138;2024-02-04T13:14:54;13.30;99.90
76172;DHT22;64929;51.178;4.138;2024-02-04T13:17:20;13.30;99.90
76172;DHT22;64929;51.178;4.138;2024-02-04T13:19:45;13.30;99.90
76172;DHT22;64929;51.178;4.138;2024-02-04T13:22:11;13.20;99.90
76172;DHT22;64929;51.178;4.138;2024-02-04T13:24:39;13.30;99.90
76172;DHT22;64929;51.178;4.138;2024-02-04T13:27:05;13.40;99.90
76172;DHT22;64929;51.178;4.138;2024-02-04T13:29:34;13.40;99.90
76172;DHT22;64929;51.178;4.138;2024-02-04T13:32:00;13.40;99.90
76172;DHT22;64929;51.178;4.138;2024-02-04T13:34:25;13.40;99.90
76172;DHT22;64929;51.178;4.138;2024-02-04T13:36:51;13.50;99.90
76172;DHT22;64929;51.178;4.138;2024-02-04T13:39:17;13.40;99.90
76172;DHT22;64929;51.178;4.138;2024-02-04T13:41:44;13.30;99.90
76172;DHT22;64929;51.178;4.138;2024-02-04T13:44:10;13.30;99.90
76172;DHT22;64929;51.178;4.138;2024-02-04T13:46:36;13.20;99.90
76172;DHT22;64929;51.178;4.138;2024-02-04T13:49:02;13.40;99.90
76172;DHT22;64929;51.178;4.138;2024-02-04T13:51:28;13.20;99.90
76172;DHT22;64929;51.178;4.138;2024-02-04T13:53:54;13.20;99.90
76172;DHT22;64929;51.178;4.138;2024-02-04T13:56:20;13.10;99.90
76172;DHT22;64929;51.178;4.138;2024-02-04T13:58:46;13.20;99.90
76172;DHT22;64929;51.178;4.138;2024-02-04T14:01:12;13.30;99.90
76172;DHT22;64929;51.178;4.138;2024-02-04T14:03:38;13.40;99.90
76172;DHT22;64929;51.178;4.138;2024-02-04T14:06:04;13.40;99.90
76172;DHT22;64929;51.178;4.138;2024-02-04T14:08:30;13.20;99.90
76172;DHT22;64929;51.178;4.138;2024-02-04T14:10:56;13.10;99.90
76172;DHT22;64929;51.178;4.138;2024-02-04T14:13:22;13.10;99.90
76172;DHT22;64929;51.178;4.138;2024-02-04T14:15:47;13.30;99.90
76172;DHT22;64929;51.178;4.138;2024-02-04T14:18:13;13.20;99.90
76172;DHT22;64929;51.178;4.138;2024-02-04T14:20:39;13.20;99.90
76172;DHT22;64929;51.178;4.138;2024-02-04T14:23:05;13.50;99.90
76172;DHT22;64929;51.178;4.138;2024-02-04T14:25:30;13.50;99.90
76172;DHT22;64929;51.178;4.138;2024-02-04T14:27:56;13.70;99.90
76172;DHT22;64929;51.178;4.138;2024-02-04T14:30:22;13.70;99.90
76172;DHT22;64929;51.178;4.138;2024-02-04T14:32:47;13.70;99.90
76172;DHT22;64929;51.178;4.138;2024-02-04T14:35:13;13.70;99.90
76172;DHT22;64929;51.178;4.138;2024-02-04T14:37:39;13.80;99.90
76172;DHT22;64929;51.178;4.138;2024-02-04T14:40:06;13.60;99.90
76172;DHT22;64929;51.178;4.138;2024-02-04T14:42:32;13.40;99.90
76172;DHT22;64929;51.178;4.138;2024-02-04T14:44:58;13.40;99.90
76172;DHT22;64929;51.178;4.138;2024-02-04T14:47:26;13.40;99.90
76172;DHT22;64929;51.178;4.138;2024-02-04T14:49:53;13.40;99.90
76172;DHT22;64929;51.178;4.138;2024-02-04T14:52:18;13.40;99.90
76172;DHT22;64929;51.178;4.138;2024-02-04T14:54:44;13.60;99.90
76172;DHT22;64929;51.178;4.138;2024-02-04T14:57:10;13.60;99.90
76172;DHT22;64929;51.178;4.138;2024-02-04T14:59:36;13.60;99.90
76172;DHT22;64929;51.178;4.138;2024-02-04T15:02:06;13.60;99.90
76172;DHT22;64929;51.178;4.138;2024-02-04T15:04:34;13.30;99.90
76172;DHT22;64929;51.178;4.138;2024-02-04T15:07:00;13.30;99.90
76172;DHT22;64929;51.178;4.138;2024-02-04T15:09:33;13.30;99.90
76172;DHT22;64929;51.178;4.138;2024-02-04T15:11:59;13.20;99.90
76172;DHT22;64929;51.178;4.138;2024-02-04T15:14:26;13.30;99.90
76172;DHT22;64929;51.178;4.138;2024-02-04T15:16:53;13.30;99.90
76172;DHT22;64929;51.178;4.138;2024-02-04T15:19:21;13.30;99.90
76172;DHT22;64929;51.178;4.138;2024-02-04T15:21:47;13.20;99.90
76172;DHT22;64929;51.178;4.138;2024-02-04T15:24:14;13.20;99.90
76172;DHT22;64929;51.178;4.138;2024-02-04T15:26:40;13.30;99.90
76172;DHT22;64929;51.178;4.138;2024-02-04T15:29:09;13.30;99.90
76172;DHT22;64929;51.178;4.138;2024-02-04T15:31:38;13.40;99.90
76172;DHT22;64929;51.178;4.138;2024-02-04T15:34:04;13.30;99.90
76172;DHT22;64929;51.178;4.138;2024-02-04T15:36:32;13.20;99.90